createdAt,value
2022-11-23T00:01:38.476Z,7.84
2022-11-23T00:04:43.931Z,7.89
2022-11-23T00:07:49.084Z,7.87
2022-11-23T00:10:59.484Z,7.84
2022-11-23T00:14:05.483Z,7.83
2022-11-23T00:17:10.944Z,7.71
2022-11-23T00:20:17.207Z,7.81
2022-11-23T00:23:22.914Z,7.82
2022-11-23T00:26:29.070Z,7.77
2022-11-23T00:29:34.542Z,7.77
2022-11-23T00:32:40.091Z,7.71
2022-11-23T00:35:45.949Z,7.65
2022-11-23T00:38:54.773Z,7.76
2022-11-23T00:42:00.210Z,7.69
2022-11-23T00:45:06.494Z,7.50
2022-11-23T00:48:11.611Z,7.49
2022-11-23T00:51:24.319Z,7.56
2022-11-23T00:54:29.664Z,7.63
2022-11-23T00:57:35.784Z,7.57
2022-11-23T01:00:41.609Z,7.49
2022-11-23T01:03:50.095Z,7.58
2022-11-23T01:06:58.284Z,7.56
2022-11-23T01:10:03.918Z,7.48
2022-11-23T01:13:11.561Z,7.39
2022-11-23T01:16:29.313Z,7.31
2022-11-23T01:19:35.158Z,7.36
2022-11-23T01:22:41.079Z,7.33
2022-11-23T01:25:51.880Z,7.36
2022-11-23T01:29:00.374Z,7.34
2022-11-23T01:32:06.211Z,7.25
2022-11-23T01:35:11.916Z,7.29
2022-11-23T01:38:18.532Z,7.30
2022-11-23T01:41:36.024Z,7.32
2022-11-23T01:44:44.190Z,7.24
2022-11-23T01:47:49.414Z,7.19
2022-11-23T01:50:59.486Z,7.17
2022-11-23T01:54:16.229Z,7.13
2022-11-23T01:57:27.498Z,7.10
2022-11-23T02:00:32.979Z,7.18
2022-11-23T02:03:40.818Z,7.11
2022-11-23T02:06:48.439Z,7.16
2022-11-23T02:09:54.448Z,7.15
2022-11-23T02:13:06.438Z,7.09
2022-11-23T02:16:15.889Z,7.20
2022-11-23T02:19:54.307Z,7.20
2022-11-23T02:23:08.654Z,7.20
2022-11-23T02:26:23.411Z,7.08
2022-11-23T02:29:30.102Z,7.04
2022-11-23T02:32:40.024Z,6.94
2022-11-23T02:35:50.998Z,6.93
2022-11-23T02:38:59.208Z,6.92
2022-11-23T02:42:06.057Z,6.87
2022-11-23T02:45:41.321Z,6.86
2022-11-23T02:48:46.523Z,6.75
2022-11-23T02:51:53.232Z,6.77
2022-11-23T02:54:58.834Z,6.83
2022-11-23T02:58:06.530Z,6.62
2022-11-23T03:01:12.294Z,6.65
2022-11-23T03:04:20.766Z,6.73
2022-11-23T03:07:30.814Z,6.65
2022-11-23T03:10:38.061Z,6.59
2022-11-23T03:13:44.408Z,6.57
2022-11-23T03:16:50.232Z,6.48
2022-11-23T03:19:57.483Z,6.32
2022-11-23T03:23:04.158Z,6.36
2022-11-23T03:26:13.146Z,6.32
2022-11-23T03:29:32.636Z,6.14
2022-11-23T03:32:42.871Z,6.23
2022-11-23T03:35:48.931Z,6.22
2022-11-23T03:39:09.486Z,6.31
2022-11-23T03:42:33.089Z,6.28
2022-11-23T03:45:38.666Z,6.26
2022-11-23T03:48:44.437Z,6.22
2022-11-23T03:51:50.648Z,6.10
2022-11-23T03:54:56.378Z,5.94
2022-11-23T03:58:01.779Z,6.13
2022-11-23T04:01:11.512Z,5.91
2022-11-23T04:04:19.174Z,5.81
2022-11-23T04:07:40.586Z,5.95
2022-11-23T04:10:46.068Z,5.80
2022-11-23T04:13:59.743Z,5.87
2022-11-23T04:17:05.623Z,5.86
2022-11-23T04:20:13.151Z,5.88
2022-11-23T04:23:19.170Z,5.80
2022-11-23T04:26:27.341Z,5.69
2022-11-23T04:29:33.444Z,5.68
2022-11-23T04:32:40.261Z,5.60
2022-11-23T04:35:45.912Z,5.49
2022-11-23T04:38:52.505Z,5.65
2022-11-23T04:42:04.325Z,5.65
2022-11-23T04:45:11.933Z,5.43
2022-11-23T04:48:17.558Z,5.41
2022-11-23T04:51:23.371Z,5.52
2022-11-23T04:54:29.079Z,5.52
2022-11-23T04:57:37.872Z,5.55
2022-11-23T05:00:43.541Z,5.41
2022-11-23T05:03:51.072Z,5.54
2022-11-23T05:06:57.296Z,5.49
2022-11-23T05:10:05.583Z,5.30
2022-11-23T05:13:13.604Z,5.16
2022-11-23T05:16:19.707Z,5.11
2022-11-23T05:19:25.451Z,5.17
2022-11-23T05:22:31.372Z,5.12
2022-11-23T05:25:36.762Z,5.11
2022-11-23T05:28:44.597Z,5.13
2022-11-23T05:31:53.190Z,5.06
2022-11-23T05:34:59.049Z,5.11
2022-11-23T05:38:08.343Z,4.96
2022-11-23T05:41:13.970Z,5.08
2022-11-23T05:44:22.533Z,4.96
2022-11-23T05:47:28.419Z,4.99
2022-11-23T05:50:33.617Z,4.61
2022-11-23T05:53:58.939Z,4.58
2022-11-23T05:57:13.080Z,4.32
2022-11-23T06:00:20.939Z,4.60
2022-11-23T06:03:36.298Z,4.56
2022-11-23T06:06:41.894Z,4.52
2022-11-23T06:09:48.853Z,4.46
2022-11-23T06:12:54.718Z,4.39
2022-11-23T06:16:03.001Z,4.66
2022-11-23T06:19:20.056Z,4.47
2022-11-23T06:22:26.459Z,4.39
2022-11-23T06:25:39.499Z,3.93
2022-11-23T06:28:56.361Z,4.24
2022-11-23T06:32:02.055Z,4.27
2022-11-23T06:35:07.832Z,4.37
2022-11-23T06:38:17.908Z,4.39
2022-11-23T06:41:28.173Z,4.38
2022-11-23T06:44:38.264Z,4.39
2022-11-23T06:47:46.759Z,4.50
2022-11-23T06:50:53.199Z,4.62
2022-11-23T06:54:01.699Z,4.35
2022-11-23T06:57:11.377Z,4.63
2022-11-23T07:00:18.605Z,4.74
2022-11-23T07:03:25.383Z,4.79
2022-11-23T07:06:41.915Z,4.77
2022-11-23T07:09:57.645Z,4.85
2022-11-23T07:13:21.747Z,4.83
2022-11-23T07:16:27.585Z,4.62
2022-11-23T07:19:33.478Z,4.75
2022-11-23T07:22:40.420Z,4.61
2022-11-23T07:25:46.638Z,4.68
2022-11-23T07:28:51.937Z,4.84
2022-11-23T07:31:57.117Z,4.92
2022-11-23T07:35:05.893Z,5.15
2022-11-23T07:38:15.203Z,4.69
2022-11-23T07:41:21.925Z,4.99
2022-11-23T07:44:38.762Z,5.08
2022-11-23T07:47:48.017Z,5.11
2022-11-23T07:50:54.635Z,5.34
2022-11-23T07:54:00.428Z,5.25
2022-11-23T07:57:05.498Z,5.36
2022-11-23T08:00:12.707Z,5.41
2022-11-23T08:03:33.312Z,5.73
2022-11-23T08:06:38.906Z,5.75
2022-11-23T08:09:44.580Z,5.66
2022-11-23T08:12:51.343Z,5.46
2022-11-23T08:15:57.421Z,5.74
2022-11-23T08:19:03.013Z,6.03
2022-11-23T08:22:08.288Z,6.15
2022-11-23T08:25:13.371Z,6.22
2022-11-23T08:28:18.636Z,6.12
2022-11-23T08:31:23.843Z,6.30
2022-11-23T08:34:29.215Z,6.40
2022-11-23T08:37:34.798Z,6.46
2022-11-23T08:40:41.381Z,6.70
2022-11-23T08:43:53.619Z,6.87
2022-11-23T08:46:59.211Z,6.86
2022-11-23T08:50:05.178Z,7.08
2022-11-23T08:53:10.402Z,7.19
2022-11-23T08:56:16.420Z,7.31
2022-11-23T08:59:22.183Z,7.43
2022-11-23T09:02:27.561Z,7.49
2022-11-23T09:05:33.258Z,7.63
2022-11-23T09:08:38.716Z,7.71
2022-11-23T09:11:44.558Z,7.78
2022-11-23T09:14:50.506Z,7.89
2022-11-23T09:17:57.630Z,7.97
2022-11-23T09:21:05.503Z,7.91
2022-11-23T09:24:12.462Z,8.04
2022-11-23T09:27:18.538Z,8.09
2022-11-23T09:30:24.189Z,8.18
2022-11-23T09:33:29.555Z,8.19
2022-11-23T09:36:35.272Z,8.19
2022-11-23T09:39:40.579Z,8.30
2022-11-23T09:43:04.555Z,8.51
2022-11-23T09:46:20.144Z,8.61
2022-11-23T09:49:42.080Z,8.52
2022-11-23T09:52:50.096Z,8.55
2022-11-23T09:55:58.098Z,8.73
2022-11-23T09:59:22.738Z,8.79
2022-11-23T10:02:29.610Z,8.87
2022-11-23T10:05:40.124Z,8.90
2022-11-23T10:09:20.874Z,8.93
2022-11-23T10:12:51.050Z,9.13
2022-11-23T10:16:25.213Z,9.03
2022-11-23T10:20:03.352Z,9.19
2022-11-23T10:23:33.048Z,9.30
2022-11-23T10:26:42.207Z,9.30
2022-11-23T10:29:48.384Z,9.43
2022-11-23T10:33:04.753Z,9.49
2022-11-23T10:36:13.920Z,9.61
2022-11-23T10:39:25.182Z,9.69
2022-11-23T10:42:37.673Z,9.63
2022-11-23T10:45:42.796Z,9.68
2022-11-23T10:48:48.916Z,9.62
2022-11-23T10:52:06.201Z,9.69
2022-11-23T10:55:14.700Z,9.76
2022-11-23T10:58:56.533Z,9.78
2022-11-23T11:02:05.561Z,9.76
2022-11-23T11:09:05.699Z,9.88
2022-11-23T11:12:19.797Z,9.88
2022-11-23T11:15:26.172Z,9.98
2022-11-23T11:18:37.591Z,10.10
2022-11-23T11:21:43.254Z,10.06
2022-11-23T11:24:49.857Z,10.11
2022-11-23T11:27:56.548Z,10.18
2022-11-23T11:31:24.165Z,10.26
2022-11-23T11:34:39.379Z,10.08
2022-11-23T11:37:48.352Z,10.26
2022-11-23T11:40:55.061Z,10.18
2022-11-23T11:44:14.305Z,10.26
2022-11-23T11:47:47.299Z,10.27
2022-11-23T11:51:05.355Z,10.20
2022-11-23T11:54:19.904Z,10.32
2022-11-23T11:57:38.197Z,10.43
2022-11-23T12:00:46.554Z,10.45
2022-11-23T12:04:00.208Z,10.54
2022-11-23T12:07:16.670Z,10.54
2022-11-23T12:10:45.757Z,10.44
2022-11-23T12:14:04.293Z,10.37
2022-11-23T12:17:46.866Z,10.69
2022-11-23T12:20:52.392Z,10.72
2022-11-23T12:24:12.876Z,10.64
2022-11-23T12:27:24.578Z,10.64
2022-11-23T12:31:11.304Z,10.62
2022-11-23T12:34:38.452Z,10.60
2022-11-23T12:38:28.281Z,10.47
2022-11-23T12:41:48.166Z,10.63
2022-11-23T12:45:17.906Z,10.50
2022-11-23T12:48:23.733Z,10.40
2022-11-23T12:51:46.979Z,10.23
2022-11-23T12:55:48.156Z,10.38
2022-11-23T12:58:56.769Z,10.39
2022-11-23T13:02:10.359Z,10.26
2022-11-23T13:05:41.872Z,10.20
2022-11-23T13:08:53.296Z,10.21
2022-11-23T13:12:12.560Z,10.01
2022-11-23T13:15:55.660Z,9.88
2022-11-23T13:19:39.789Z,10.02
2022-11-23T13:22:46.328Z,10.19
2022-11-23T13:26:15.729Z,10.02
2022-11-23T13:29:50.247Z,10.02
2022-11-23T13:33:27.002Z,9.82
2022-11-23T13:37:11.108Z,9.93
2022-11-23T13:40:32.593Z,9.90
2022-11-23T13:43:38.080Z,10.00
2022-11-23T13:46:43.601Z,9.83
2022-11-23T13:50:08.234Z,9.86
2022-11-23T13:53:29.617Z,9.76
2022-11-23T13:56:42.936Z,9.81
2022-11-23T13:59:48.424Z,9.78
2022-11-23T14:03:34.732Z,9.67
2022-11-23T14:06:48.752Z,9.83
2022-11-23T14:10:21.182Z,9.92
2022-11-23T14:13:29.144Z,9.67
2022-11-23T14:16:59.297Z,9.65
2022-11-23T14:20:25.735Z,9.68
2022-11-23T14:23:37.066Z,9.69
2022-11-23T14:27:45.835Z,9.73
2022-11-23T14:30:45.026Z,9.67
2022-11-23T14:34:13.644Z,9.66
2022-11-23T14:38:13.106Z,9.67
2022-11-23T14:41:26.212Z,9.70
2022-11-23T14:44:38.340Z,9.67
2022-11-23T14:47:44.588Z,9.71
2022-11-23T14:51:06.639Z,9.65
2022-11-23T14:54:12.761Z,9.63
2022-11-23T14:57:21.469Z,9.61
2022-11-23T15:00:44.422Z,9.56
2022-11-23T15:03:57.826Z,9.41
2022-11-23T15:07:50.498Z,9.42
2022-11-23T15:11:16.492Z,9.28
2022-11-23T15:14:43.579Z,9.25
2022-11-23T15:18:02.477Z,9.19
2022-11-23T15:21:11.000Z,9.09
2022-11-23T15:24:24.444Z,9.03
2022-11-23T15:27:30.555Z,8.96
2022-11-23T15:30:37.705Z,8.92
2022-11-23T15:33:48.932Z,8.86
2022-11-23T15:36:56.139Z,8.83
2022-11-23T15:40:02.183Z,8.81
2022-11-23T15:43:13.635Z,8.76
2022-11-23T15:46:20.789Z,8.68
2022-11-23T15:49:26.522Z,8.61
2022-11-23T15:52:36.975Z,8.45
2022-11-23T15:55:43.800Z,8.39
2022-11-23T15:58:51.469Z,8.32
2022-11-23T16:01:57.174Z,8.24
2022-11-23T16:05:15.532Z,8.29
2022-11-23T16:08:38.099Z,8.17
2022-11-23T16:11:46.220Z,8.11
2022-11-23T16:14:52.642Z,8.10
2022-11-23T16:17:59.808Z,8.09
2022-11-23T16:21:05.492Z,8.02
2022-11-23T16:24:21.846Z,7.89
2022-11-23T16:27:27.415Z,7.91
2022-11-23T16:30:41.797Z,7.87
2022-11-23T16:33:46.884Z,7.77
2022-11-23T16:36:53.445Z,7.81
2022-11-23T16:39:59.006Z,7.81
2022-11-23T16:43:04.746Z,7.77
2022-11-23T16:46:10.988Z,7.62
2022-11-23T16:49:20.169Z,7.63
2022-11-23T16:52:25.879Z,7.65
2022-11-23T16:55:31.529Z,7.67
2022-11-23T16:58:37.507Z,7.68
2022-11-23T17:01:46.422Z,7.48
2022-11-23T17:04:52.362Z,7.45
2022-11-23T17:07:58.421Z,7.44
2022-11-23T17:11:04.502Z,7.33
2022-11-23T17:14:18.961Z,7.37
2022-11-23T17:17:25.084Z,7.35
2022-11-23T17:20:30.877Z,7.27
2022-11-23T17:23:36.155Z,7.36
2022-11-23T17:26:53.631Z,7.39
2022-11-23T17:30:01.981Z,7.34
2022-11-23T17:33:11.203Z,7.13
2022-11-23T17:36:17.167Z,7.01
2022-11-23T17:39:25.490Z,6.98
2022-11-23T17:42:31.083Z,6.84
2022-11-23T17:45:36.564Z,6.88
2022-11-23T17:48:42.268Z,6.83
2022-11-23T17:51:48.069Z,6.90
2022-11-23T17:54:53.343Z,6.80
2022-11-23T17:57:58.913Z,6.73
2022-11-23T18:01:04.881Z,6.57
2022-11-23T18:04:10.730Z,6.63
2022-11-23T18:07:17.394Z,6.62
2022-11-23T18:10:23.330Z,6.59
2022-11-23T18:13:28.789Z,6.49
2022-11-23T18:16:34.295Z,6.52
2022-11-23T18:19:39.493Z,6.34
2022-11-23T18:22:44.918Z,6.43
2022-11-23T18:26:04.421Z,6.33
2022-11-23T18:29:15.544Z,6.30
2022-11-23T18:32:23.121Z,6.48
2022-11-23T18:35:28.698Z,6.49
2022-11-23T18:38:35.160Z,6.39
2022-11-23T18:41:40.816Z,6.38
2022-11-23T18:44:46.504Z,6.15
2022-11-23T18:47:51.765Z,6.15
2022-11-23T18:50:56.957Z,6.17
2022-11-23T18:54:01.832Z,6.25
2022-11-23T18:57:08.393Z,6.14
2022-11-23T19:00:16.088Z,6.22
2022-11-23T19:03:21.821Z,6.20
2022-11-23T19:06:27.321Z,5.93
2022-11-23T19:09:32.938Z,5.26
2022-11-23T19:12:39.224Z,5.62
2022-11-23T19:15:44.784Z,5.63
2022-11-23T19:19:00.350Z,5.73
2022-11-23T19:22:05.645Z,5.66
2022-11-23T19:25:10.961Z,5.77
2022-11-23T19:28:16.370Z,5.83
2022-11-23T19:31:24.561Z,5.92
2022-11-23T19:34:30.291Z,5.75
2022-11-23T19:37:37.023Z,5.96
2022-11-23T19:40:42.286Z,5.81
2022-11-23T19:43:53.208Z,5.82
2022-11-23T19:46:58.598Z,5.92
2022-11-23T19:50:04.021Z,5.90
2022-11-23T19:53:13.235Z,5.86
2022-11-23T19:56:24.381Z,5.85
2022-11-23T19:59:30.171Z,5.86
2022-11-23T20:02:36.110Z,5.79
2022-11-23T20:05:59.504Z,5.56
2022-11-23T20:09:07.960Z,5.47
2022-11-23T20:12:13.374Z,5.51
2022-11-23T20:15:18.978Z,5.23
2022-11-23T20:18:29.467Z,5.31
2022-11-23T20:21:37.272Z,5.30
2022-11-23T20:24:42.684Z,5.19
2022-11-23T20:27:47.876Z,4.46
2022-11-23T20:30:53.124Z,4.26
2022-11-23T20:33:59.772Z,3.89
2022-11-23T20:37:06.856Z,4.41
2022-11-23T20:40:12.804Z,4.89
2022-11-23T20:43:19.104Z,5.02
2022-11-23T20:46:53.727Z,5.19
2022-11-23T20:49:52.129Z,5.37
2022-11-23T20:53:02.935Z,5.26
2022-11-23T20:56:14.049Z,5.37
2022-11-23T20:59:21.106Z,5.32
2022-11-23T21:02:26.597Z,5.25
2022-11-23T21:05:32.137Z,5.30
2022-11-23T21:08:38.117Z,5.53
2022-11-23T21:12:02.207Z,5.57
2022-11-23T21:15:08.302Z,5.53
2022-11-23T21:18:15.101Z,5.58
2022-11-23T21:21:20.898Z,5.73
2022-11-23T21:24:26.761Z,5.62
2022-11-23T21:27:33.447Z,5.56
2022-11-23T21:30:39.342Z,5.70
2022-11-23T21:33:45.059Z,5.66
2022-11-23T21:36:51.637Z,5.68
2022-11-23T21:39:56.833Z,5.82
2022-11-23T21:43:02.450Z,5.90
2022-11-23T21:46:13.124Z,5.88
2022-11-23T21:49:18.653Z,5.88
2022-11-23T21:52:24.702Z,5.89
2022-11-23T21:55:30.541Z,5.79
2022-11-23T21:58:36.241Z,5.79
2022-11-23T22:01:42.754Z,5.55
2022-11-23T22:04:48.758Z,5.51
2022-11-23T22:08:27.785Z,5.42
2022-11-23T22:11:25.453Z,5.51
2022-11-23T22:14:31.540Z,5.31
2022-11-23T22:17:37.437Z,5.43
2022-11-23T22:20:42.915Z,5.33
2022-11-23T22:23:48.446Z,5.23
2022-11-23T22:26:54.146Z,5.26
2022-11-23T22:29:59.464Z,5.37
2022-11-23T22:33:05.391Z,5.25
2022-11-23T22:36:14.290Z,5.26
2022-11-23T22:39:19.618Z,5.29
2022-11-23T22:42:24.607Z,5.26
2022-11-23T22:45:30.294Z,5.26
2022-11-23T22:48:43.578Z,5.02
2022-11-23T22:51:49.139Z,4.96
2022-11-23T22:54:54.690Z,4.86
2022-11-23T22:57:59.958Z,5.05
2022-11-23T23:01:16.597Z,4.90
2022-11-23T23:04:22.135Z,4.89
2022-11-23T23:07:31.750Z,4.80
2022-11-23T23:10:37.171Z,4.70
2022-11-23T23:13:42.746Z,4.63
2022-11-23T23:16:47.949Z,4.56
2022-11-23T23:19:53.139Z,4.62
2022-11-23T23:22:58.401Z,4.85
2022-11-23T23:26:04.910Z,4.88
2022-11-23T23:29:10.148Z,4.79
2022-11-23T23:32:15.501Z,4.67
2022-11-23T23:35:21.510Z,4.73
2022-11-23T23:38:27.925Z,4.87
2022-11-23T23:41:33.750Z,4.65
2022-11-23T23:44:38.967Z,4.74
2022-11-23T23:47:44.662Z,4.70
2022-11-23T23:50:50.901Z,4.76
2022-11-23T23:53:57.919Z,4.64
2022-11-23T23:57:03.767Z,4.56
